Santa Angelina — D5HS5 — position and weather

sailwx.info

Track history (hours):
 
Tides and Currents Weather Stations Pressure Air Temp Water Temp Dewpoint Dewpoint Depression Visibility Wind Speed Wind Dir Waves Ship Positions

Santa Angelina

Last reported at 2018-Jun-02 19:21 UTC. Time now 2018-Jun-18 07:30 UTC.
Position N 28°02' W 016°20'.
Warning: this ship's position is 15 days out of date.

Length 189 m; draft 12.1 m.

Type: Cargo ship. MMSI: 636016769.

Date/timePositionNaut miles runAvg speedWind from/ knotsBaromVisibWave heightAir tempDewpointWater temp
2018-Jun-02 19:21N 28°02' W 016°20'612.6
2018-Jun-02 18:55N 28°06' W 016°16'512.4
2018-Jun-02 18:28N 28°10' W 016°12'612.5
2018-Jun-02 18:00N 28°15' W 016°08'612.5
2018-Jun-02 17:30N 28°20' W 016°03'612.3
2018-Jun-02 17:00N 28°24' W 015°59'612.1
2018-Jun-02 16:30N 28°29' W 015°54'611.9
2018-Jun-02 16:00N 28°34' W 015°50'612.0
2018-Jun-02 15:30N 28°38' W 015°45'612.1
2018-Jun-02 15:00N 28°42' W 015°41'612.2
2018-Jun-02 14:30N 28°47' W 015°36'612.4
2018-Jun-02 14:00N 28°52' W 015°32'612.3
2018-Jun-02 13:30N 28°56' W 015°27'612.2
2018-Jun-02 13:00N 29°01' W 015°22'712.0
2018-Jun-02 12:23N 29°07' W 015°17'1411.7
2018-Jun-02 11:11N 29°20' W 015°12'312.2
2018-Jun-02 10:56N 29°23' W 015°12'612.1
2018-Jun-02 10:28N 29°29' W 015°10'712.0
2018-Jun-02 09:55N 29°35' W 015°08'512.0
2018-Jun-02 09:30N 29°40' W 015°06'2012.1
2018-Jun-02 07:50N 29°59' W 015°00'512.2
2018-Jun-02 07:26N 30°04' W 014°59'512.2
2018-Jun-02 07:00N 30°09' W 014°58'  
2018-May-29 02:40N 48°55' W 005°44'310.7
2018-May-29 02:21N 48°57' W 005°40'410.9
2018-May-29 01:58N 48°59' W 005°35'811.1
2018-May-29 01:12N 49°04' W 005°24'311.6
2018-May-29 00:57N 49°05' W 005°20'1112.2
2018-May-29 00:05N 49°11' W 005°06'112.6
2018-May-28 23:59N 49°11' W 005°05'812.9
2018-May-28 23:24N 49°15' W 004°54'5912.5
2018-May-28 18:42N 49°45' W 003°37'210.5
2018-May-28 18:29N 49°46' W 003°34'510.4
2018-May-28 18:00N 49°49' W 003°27'510.3
2018-May-28 17:31N 49°51' W 003°20'510.4
2018-May-28 16:59N 49°54' W 003°13'510.8
2018-May-28 16:30N 49°57' W 003°06'611.1
2018-May-28 16:00N 49°59' W 002°58'1012.2
2018-May-28 15:09N 50°02' W 002°43'212.8
2018-May-28 15:01N 50°02' W 002°40'1814.1
2018-May-28 13:45N 50°07' W 002°13'415.2
2018-May-28 13:29N 50°08' W 002°07'815.4
2018-May-28 12:58N 50°11' W 001°55'815.3
2018-May-28 12:28N 50°13' W 001°44'914.8
2018-May-28 11:52N 50°15' W 001°31'614.0
2018-May-28 11:28N 50°17' W 001°22'613.5
2018-May-28 11:01N 50°19' W 001°13'612.2
2018-May-28 10:30N 50°20' W 001°04'611.6
2018-May-28 10:00N 50°21' W 000°55'510.5
2018-May-28 09:30N 50°23' W 000°47'5 9.6
2018-May-28 09:00N 50°24' W 000°40'15 9.4
2018-May-28 07:25N 50°28' W 000°17'4 9.7
2018-May-28 07:00N 50°29' W 000°11'510.1
2018-May-28 06:30N 50°31' W 000°03'710.6
2018-May-28 05:53N 50°33' E 000°07'411.2
2018-May-28 05:30N 50°34' E 000°13'611.9
2018-May-28 05:00N 50°36' E 000°22'612.6
2018-May-28 04:31N 50°37' E 000°31'612.8
2018-May-28 04:00N 50°40' E 000°41'612.9
2018-May-28 03:31N 50°44' E 000°49'612.6
2018-May-28 03:01N 50°48' E 000°56'612.3
2018-May-28 02:31N 50°52' E 001°04'611.9
2018-May-28 02:00N 50°56' E 001°11'611.2
2018-May-28 01:30N 50°59' E 001°17'510.3
2018-May-28 01:01N 51°02' E 001°24'5 9.6
2018-May-28 00:31N 51°05' E 001°30'4 8.7
2018-May-28 00:01N 51°08' E 001°35'4 8.8
2018-May-27 23:31N 51°11' E 001°40'5 9.2
2018-May-27 23:01N 51°14' E 001°46'5 9.9
2018-May-27 22:31N 51°18' E 001°50'510.6
2018-May-27 22:01N 51°23' E 001°54'611.6
2018-May-27 21:31N 51°28' E 001°59'612.4
2018-May-27 21:00N 51°33' E 002°05'612.8
2018-May-27 20:31N 51°38' E 002°12'713.5
2018-May-27 20:00N 51°43' E 002°19'713.7
2018-May-27 19:30N 51°48' E 002°26'713.8
2018-May-27 18:58N 51°54' E 002°34'613.7
2018-May-27 18:30N 51°58' E 002°41'2212.7
2018-May-27 16:47N 52°15' E 003°04'1111.6
2018-May-27 15:47N 52°24' E 003°14'511.0
2018-May-27 15:21N 52°28' E 003°19'1210.7
2018-May-27 14:13N 52°38' E 003°31'810.5
2018-May-27 13:29N 52°44' E 003°39'610.4
2018-May-27 12:56N 52°48' E 003°45'510.8
2018-May-27 12:30N 52°52' E 003°50'911.5
2018-May-27 11:40N 52°59' E 004°01'412.3
2018-May-27 11:19N 53°02' E 004°06'512.6
2018-May-27 10:55N 53°05' E 004°13'512.8
2018-May-27 10:30N 53°08' E 004°20'612.4
2018-May-27 10:00N 53°13' E 004°26'612.9
2018-May-27 09:30N 53°19' E 004°29'612.7
2018-May-27 09:00N 53°25' E 004°33'611.3
2018-May-27 08:30N 53°30' E 004°39'612.1
2018-May-27 08:00N 53°32' E 004°49'611.6
2018-May-27 07:30N 53°34' E 004°58'611.1
2018-May-27 07:00N 53°36' E 005°06'510.6
2018-May-27 06:30N 53°38' E 005°15'510.5
2018-May-27 06:00N 53°39' E 005°24'510.5
2018-May-27 05:30N 53°41' E 005°32'510.6
2018-May-27 05:01N 53°43' E 005°40'510.9
2018-May-27 04:31N 53°44' E 005°49'611.1
2018-May-27 04:00N 53°46' E 005°58'611.6
2018-May-27 03:31N 53°48' E 006°07'612.0
2018-May-27 03:00N 53°49' E 006°17'612.6
2018-May-27 02:30N 53°51' E 006°28'6512.4
2018-May-26 21:13N 53°60' E 008°18'411.7
2018-May-26 20:54N 53°59' E 008°24'510.8
2018-May-26 20:29N 53°58' E 008°31'5 9.6
2018-May-26 20:00N 53°57' E 008°39'5 9.3
2018-May-26 19:30N 53°53' E 008°43'4 8.8
2018-May-26 19:00N 53°50' E 008°49'510.6
2018-May-26 18:30N 53°51' E 008°58'611.5
2018-May-26 18:00N 53°53' E 009°07'611.0
2018-May-26 17:30N 53°52' E 009°17'612.8
2018-May-26 17:00N 53°47' E 009°23'612.6
2018-May-26 16:30N 53°42' E 009°30'611.9
2018-May-26 16:00N 53°37' E 009°34'612.3
2018-May-26 15:30N 53°34' E 009°43'611.9
2018-May-26 15:01N 53°33' E 009°53'3 6.3
2018-May-26 14:31N 53°31' E 009°57'0 0.9
2018-May-26 13:59N 53°30' E 009°58'0 0.0
2018-May-26 13:29N 53°30' E 009°58'0 0.0
2018-May-26 13:00N 53°30' E 009°58'0 0.0
2018-May-26 12:30N 53°30' E 009°58'0 0.0
2018-May-26 12:00N 53°30' E 009°58'0 0.0
2018-May-26 11:30N 53°30' E 009°58'0 0.0
2018-May-26 11:00N 53°30' E 009°58'0 0.0
2018-May-26 10:30N 53°30' E 009°58'0 0.0
2018-May-26 10:00N 53°30' E 009°58'0 0.0
2018-May-26 09:30N 53°30' E 009°58'0 0.0
2018-May-26 09:00N 53°30' E 009°58'0 0.0
2018-May-26 08:30N 53°30' E 009°58'0 0.0
2018-May-26 08:00N 53°30' E 009°58'0 0.0
2018-May-26 07:30N 53°30' E 009°58'0 0.0
2018-May-26 07:00N 53°30' E 009°58'0 0.0
2018-May-26 06:30N 53°30' E 009°58'0 0.0
2018-May-26 05:30N 53°30' E 009°58'0 0.0
2018-May-26 05:00N 53°30' E 009°58'0 0.0
2018-May-26 04:30N 53°30' E 009°58'0 0.0
2018-May-26 04:00N 53°30' E 009°58'0 0.0
2018-May-26 03:30N 53°30' E 009°58'0 0.0
2018-May-26 03:00N 53°30' E 009°58'0 0.0
2018-May-26 02:30N 53°30' E 009°58'0 0.0
2018-May-26 02:00N 53°30' E 009°58'0 0.0
2018-May-26 01:30N 53°30' E 009°58'0 0.0
2018-May-26 01:00N 53°30' E 009°58'0 0.0
2018-May-26 00:30N 53°30' E 009°58'0 0.0
2018-May-26 00:00N 53°30' E 009°58'0 0.0
2018-May-25 23:30N 53°30' E 009°58'0 0.0
2018-May-25 23:00N 53°30' E 009°58'0 0.0
2018-May-25 22:30N 53°30' E 009°58'0 0.0
2018-May-25 22:00N 53°30' E 009°58'0 0.0
2018-May-25 21:30N 53°30' E 009°58'0 0.0
2018-May-25 21:00N 53°30' E 009°58'0 0.0
2018-May-25 20:30N 53°30' E 009°58'0 0.0
2018-May-25 20:00N 53°30' E 009°58'0 0.0
2018-May-25 19:30N 53°30' E 009°58'0 0.0
2018-May-25 19:00N 53°30' E 009°58'0 0.0
2018-May-25 18:30N 53°30' E 009°58'0 0.0
2018-May-25 18:00N 53°30' E 009°58'0 0.0
2018-May-25 17:30N 53°30' E 009°58'0 0.0
2018-May-25 17:00N 53°30' E 009°58'0 0.0
2018-May-25 16:30N 53°30' E 009°58'0 0.0
2018-May-25 16:00N 53°30' E 009°58'0 0.0
2018-May-25 15:30N 53°30' E 009°58'0 0.0
2018-May-25 15:00N 53°30' E 009°58'0 0.0
2018-May-25 14:30N 53°30' E 009°58'0 0.0
2018-May-25 14:00N 53°30' E 009°58'0 0.0
2018-May-25 13:30N 53°30' E 009°58'0 0.0
2018-May-25 13:00N 53°30' E 009°58'0 0.0
2018-May-25 12:30N 53°30' E 009°58'0 0.0
2018-May-25 12:00N 53°30' E 009°58'0 0.0
2018-May-25 11:30N 53°30' E 009°58'0 0.0
2018-May-25 11:00N 53°30' E 009°58'0 0.0
2018-May-25 10:30N 53°30' E 009°58'0 0.0
2018-May-25 10:00N 53°30' E 009°58'0 0.0
2018-May-25 09:30N 53°30' E 009°58'0 0.0
2018-May-25 09:00N 53°30' E 009°58'0 0.0
2018-May-25 08:30N 53°30' E 009°58'0 0.0
2018-May-25 08:00N 53°30' E 009°58'0 0.0
2018-May-25 07:30N 53°30' E 009°58'0 0.0
2018-May-25 07:00N 53°30' E 009°58'0 0.0
2018-May-25 06:30N 53°30' E 009°58'0 0.0
2018-May-25 06:00N 53°30' E 009°58'0 0.0
2018-May-25 05:30N 53°30' E 009°58'0 0.0
2018-May-25 05:00N 53°30' E 009°58'0 0.0
2018-May-25 04:30N 53°30' E 009°58'0 0.0
2018-May-25 04:00N 53°30' E 009°58'0 0.0
2018-May-25 03:30N 53°30' E 009°58'0 0.0
2018-May-25 03:00N 53°30' E 009°58'0 0.0
2018-May-25 02:30N 53°30' E 009°58'0 0.0
2018-May-25 02:00N 53°30' E 009°58'0 0.0
2018-May-25 01:30N 53°30' E 009°58'0 0.0
2018-May-25 01:00N 53°30' E 009°58'0 0.0
2018-May-25 00:30N 53°30' E 009°58'0 0.0
2018-May-25 00:00N 53°30' E 009°58'0 0.0
2018-May-24 23:30N 53°30' E 009°58'0 0.0
2018-May-24 23:00N 53°30' E 009°58'0 0.0
2018-May-24 22:30N 53°30' E 009°58'0 0.0
2018-May-24 22:00N 53°30' E 009°58'0 0.5
2018-May-24 21:30N 53°30' E 009°57'3 5.1
2018-May-24 21:00N 53°32' E 009°55'4 8.0
2018-May-24 20:30N 53°33' E 009°48'611.2
2018-May-24 20:00N 53°34' E 009°39'713.1
2018-May-24 19:30N 53°39' E 009°31'713.2
2018-May-24 19:00N 53°44' E 009°25'714.9
2018-May-24 18:31N 53°51' E 009°19'713.9
2018-May-24 18:01N 53°53' E 009°08'510.6
2018-May-24 17:30N 53°51' E 008°59'714.1
2018-May-24 17:00N 53°50' E 008°47'611.1
2018-May-24 16:30N 53°54' E 008°41'714.3
2018-May-24 16:00N 53°58' E 008°31'714.5
2018-May-24 15:30N 53°60' E 008°19'612.2
2018-May-24 15:00N 53°60' E 008°08'3 6.4
2018-May-24 14:30N 54°00' E 008°03'4 7.8
2018-May-24 14:00N 54°02' E 007°57'95 9.0
2018-May-24 03:27N 55°19' E 006°23'613.4
2018-May-24 03:00N 55°25' E 006°27'713.3
2018-May-24 02:30N 55°31' E 006°31'713.3
2018-May-24 02:00N 55°37' E 006°36'713.3
2018-May-24 01:30N 55°43' E 006°41'713.2
2018-May-24 01:00N 55°49' E 006°46'713.3
2018-May-24 00:30N 55°55' E 006°51'713.1
2018-May-24 00:00N 56°01' E 006°55'613.1
2018-May-23 23:30N 56°07' E 007°00'713.1
2018-May-23 23:00N 56°13' E 007°05'713.2
2018-May-23 22:30N 56°19' E 007°10'713.3
2018-May-23 22:00N 56°25' E 007°16'713.3
2018-May-23 21:30N 56°31' E 007°21'713.4
2018-May-23 21:00N 56°37' E 007°27'713.5
2018-May-23 20:30N 56°43' E 007°32'713.6
2018-May-23 20:00N 56°49' E 007°37'813.5
2018-May-23 19:26N 56°56' E 007°43'  
Track history (hours):
 
Tides and Currents Weather Stations Pressure Air Temp Water Temp Dewpoint Dewpoint Depression Visibility Wind Speed Wind Dir Waves Ship Positions

Santa Angelina

Last reported at 2018-Jun-02 19:21 UTC. Time now 2018-Jun-18 07:30 UTC.
Position N 28°02' W 016°20'.
Warning: this ship's position is 15 days out of date.

Length 189 m; draft 12.1 m.

Type: Cargo ship. MMSI: 636016769.

Date/timePositionNaut miles runAvg speedWind from/ knotsBaromVisibWave heightAir tempDewpointWater temp
2018-Jun-02 19:21N 28°02' W 016°20'612.6
2018-Jun-02 18:55N 28°06' W 016°16'512.4
2018-Jun-02 18:28N 28°10' W 016°12'612.5
2018-Jun-02 18:00N 28°15' W 016°08'612.5
2018-Jun-02 17:30N 28°20' W 016°03'612.3
2018-Jun-02 17:00N 28°24' W 015°59'612.1
2018-Jun-02 16:30N 28°29' W 015°54'611.9
2018-Jun-02 16:00N 28°34' W 015°50'612.0
2018-Jun-02 15:30N 28°38' W 015°45'612.1
2018-Jun-02 15:00N 28°42' W 015°41'612.2
2018-Jun-02 14:30N 28°47' W 015°36'612.4
2018-Jun-02 14:00N 28°52' W 015°32'612.3
2018-Jun-02 13:30N 28°56' W 015°27'612.2
2018-Jun-02 13:00N 29°01' W 015°22'712.0
2018-Jun-02 12:23N 29°07' W 015°17'1411.7
2018-Jun-02 11:11N 29°20' W 015°12'312.2
2018-Jun-02 10:56N 29°23' W 015°12'612.1
2018-Jun-02 10:28N 29°29' W 015°10'712.0
2018-Jun-02 09:55N 29°35' W 015°08'512.0
2018-Jun-02 09:30N 29°40' W 015°06'2012.1
2018-Jun-02 07:50N 29°59' W 015°00'512.2
2018-Jun-02 07:26N 30°04' W 014°59'512.2
2018-Jun-02 07:00N 30°09' W 014°58'  
2018-May-29 02:40N 48°55' W 005°44'310.7
2018-May-29 02:21N 48°57' W 005°40'410.9
2018-May-29 01:58N 48°59' W 005°35'811.1
2018-May-29 01:12N 49°04' W 005°24'311.6
2018-May-29 00:57N 49°05' W 005°20'1112.2
2018-May-29 00:05N 49°11' W 005°06'112.6
2018-May-28 23:59N 49°11' W 005°05'812.9
2018-May-28 23:24N 49°15' W 004°54'5912.5
2018-May-28 18:42N 49°45' W 003°37'210.5
2018-May-28 18:29N 49°46' W 003°34'510.4
2018-May-28 18:00N 49°49' W 003°27'510.3
2018-May-28 17:31N 49°51' W 003°20'510.4
2018-May-28 16:59N 49°54' W 003°13'510.8
2018-May-28 16:30N 49°57' W 003°06'611.1
2018-May-28 16:00N 49°59' W 002°58'1012.2
2018-May-28 15:09N 50°02' W 002°43'212.8
2018-May-28 15:01N 50°02' W 002°40'1814.1
2018-May-28 13:45N 50°07' W 002°13'415.2
2018-May-28 13:29N 50°08' W 002°07'815.4
2018-May-28 12:58N 50°11' W 001°55'815.3
2018-May-28 12:28N 50°13' W 001°44'914.8
2018-May-28 11:52N 50°15' W 001°31'614.0
2018-May-28 11:28N 50°17' W 001°22'613.5
2018-May-28 11:01N 50°19' W 001°13'612.2
2018-May-28 10:30N 50°20' W 001°04'611.6
2018-May-28 10:00N 50°21' W 000°55'510.5
2018-May-28 09:30N 50°23' W 000°47'5 9.6
2018-May-28 09:00N 50°24' W 000°40'15 9.4
2018-May-28 07:25N 50°28' W 000°17'4 9.7
2018-May-28 07:00N 50°29' W 000°11'510.1
2018-May-28 06:30N 50°31' W 000°03'710.6
2018-May-28 05:53N 50°33' E 000°07'411.2
2018-May-28 05:30N 50°34' E 000°13'611.9
2018-May-28 05:00N 50°36' E 000°22'612.6
2018-May-28 04:31N 50°37' E 000°31'612.8
2018-May-28 04:00N 50°40' E 000°41'612.9
2018-May-28 03:31N 50°44' E 000°49'612.6
2018-May-28 03:01N 50°48' E 000°56'612.3
2018-May-28 02:31N 50°52' E 001°04'611.9
2018-May-28 02:00N 50°56' E 001°11'611.2
2018-May-28 01:30N 50°59' E 001°17'510.3
2018-May-28 01:01N 51°02' E 001°24'5 9.6
2018-May-28 00:31N 51°05' E 001°30'4 8.7
2018-May-28 00:01N 51°08' E 001°35'4 8.8
2018-May-27 23:31N 51°11' E 001°40'5 9.2
2018-May-27 23:01N 51°14' E 001°46'5 9.9
2018-May-27 22:31N 51°18' E 001°50'510.6
2018-May-27 22:01N 51°23' E 001°54'611.6
2018-May-27 21:31N 51°28' E 001°59'612.4
2018-May-27 21:00N 51°33' E 002°05'612.8
2018-May-27 20:31N 51°38' E 002°12'713.5
2018-May-27 20:00N 51°43' E 002°19'713.7
2018-May-27 19:30N 51°48' E 002°26'713.8
2018-May-27 18:58N 51°54' E 002°34'613.7
2018-May-27 18:30N 51°58' E 002°41'2212.7
2018-May-27 16:47N 52°15' E 003°04'1111.6
2018-May-27 15:47N 52°24' E 003°14'511.0
2018-May-27 15:21N 52°28' E 003°19'1210.7
2018-May-27 14:13N 52°38' E 003°31'810.5
2018-May-27 13:29N 52°44' E 003°39'610.4
2018-May-27 12:56N 52°48' E 003°45'510.8
2018-May-27 12:30N 52°52' E 003°50'911.5
2018-May-27 11:40N 52°59' E 004°01'412.3
2018-May-27 11:19N 53°02' E 004°06'512.6
2018-May-27 10:55N 53°05' E 004°13'512.8
2018-May-27 10:30N 53°08' E 004°20'612.4
2018-May-27 10:00N 53°13' E 004°26'612.9
2018-May-27 09:30N 53°19' E 004°29'612.7
2018-May-27 09:00N 53°25' E 004°33'611.3
2018-May-27 08:30N 53°30' E 004°39'612.1
2018-May-27 08:00N 53°32' E 004°49'611.6
2018-May-27 07:30N 53°34' E 004°58'611.1
2018-May-27 07:00N 53°36' E 005°06'510.6
2018-May-27 06:30N 53°38' E 005°15'510.5
2018-May-27 06:00N 53°39' E 005°24'510.5
2018-May-27 05:30N 53°41' E 005°32'510.6
2018-May-27 05:01N 53°43' E 005°40'510.9
2018-May-27 04:31N 53°44' E 005°49'611.1
2018-May-27 04:00N 53°46' E 005°58'611.6
2018-May-27 03:31N 53°48' E 006°07'612.0
2018-May-27 03:00N 53°49' E 006°17'612.6
2018-May-27 02:30N 53°51' E 006°28'6512.4
2018-May-26 21:13N 53°60' E 008°18'411.7
2018-May-26 20:54N 53°59' E 008°24'510.8
2018-May-26 20:29N 53°58' E 008°31'5 9.6
2018-May-26 20:00N 53°57' E 008°39'5 9.3
2018-May-26 19:30N 53°53' E 008°43'4 8.8
2018-May-26 19:00N 53°50' E 008°49'510.6
2018-May-26 18:30N 53°51' E 008°58'611.5
2018-May-26 18:00N 53°53' E 009°07'611.0
2018-May-26 17:30N 53°52' E 009°17'612.8
2018-May-26 17:00N 53°47' E 009°23'612.6
2018-May-26 16:30N 53°42' E 009°30'611.9
2018-May-26 16:00N 53°37' E 009°34'612.3
2018-May-26 15:30N 53°34' E 009°43'611.9
2018-May-26 15:01N 53°33' E 009°53'3 6.3
2018-May-26 14:31N 53°31' E 009°57'0 0.9
2018-May-26 13:59N 53°30' E 009°58'0 0.0
2018-May-26 13:29N 53°30' E 009°58'0 0.0
2018-May-26 13:00N 53°30' E 009°58'0 0.0
2018-May-26 12:30N 53°30' E 009°58'0 0.0
2018-May-26 12:00N 53°30' E 009°58'0 0.0
2018-May-26 11:30N 53°30' E 009°58'0 0.0
2018-May-26 11:00N 53°30' E 009°58'0 0.0
2018-May-26 10:30N 53°30' E 009°58'0 0.0
2018-May-26 10:00N 53°30' E 009°58'0 0.0
2018-May-26 09:30N 53°30' E 009°58'0 0.0
2018-May-26 09:00N 53°30' E 009°58'0 0.0
2018-May-26 08:30N 53°30' E 009°58'0 0.0
2018-May-26 08:00N 53°30' E 009°58'0 0.0
2018-May-26 07:30N 53°30' E 009°58'0 0.0
2018-May-26 07:00N 53°30' E 009°58'0 0.0
2018-May-26 06:30N 53°30' E 009°58'0 0.0
2018-May-26 05:30N 53°30' E 009°58'0 0.0
2018-May-26 05:00N 53°30' E 009°58'0 0.0
2018-May-26 04:30N 53°30' E 009°58'0 0.0
2018-May-26 04:00N 53°30' E 009°58'0 0.0
2018-May-26 03:30N 53°30' E 009°58'0 0.0
2018-May-26 03:00N 53°30' E 009°58'0 0.0
2018-May-26 02:30N 53°30' E 009°58'0 0.0
2018-May-26 02:00N 53°30' E 009°58'0 0.0
2018-May-26 01:30N 53°30' E 009°58'0 0.0
2018-May-26 01:00N 53°30' E 009°58'0 0.0
2018-May-26 00:30N 53°30' E 009°58'0 0.0
2018-May-26 00:00N 53°30' E 009°58'0 0.0
2018-May-25 23:30N 53°30' E 009°58'0 0.0
2018-May-25 23:00N 53°30' E 009°58'0 0.0
2018-May-25 22:30N 53°30' E 009°58'0 0.0
2018-May-25 22:00N 53°30' E 009°58'0 0.0
2018-May-25 21:30N 53°30' E 009°58'0 0.0
2018-May-25 21:00N 53°30' E 009°58'0 0.0
2018-May-25 20:30N 53°30' E 009°58'0 0.0
2018-May-25 20:00N 53°30' E 009°58'0 0.0
2018-May-25 19:30N 53°30' E 009°58'0 0.0
2018-May-25 19:00N 53°30' E 009°58'0 0.0
2018-May-25 18:30N 53°30' E 009°58'0 0.0
2018-May-25 18:00N 53°30' E 009°58'0 0.0
2018-May-25 17:30N 53°30' E 009°58'0 0.0
2018-May-25 17:00N 53°30' E 009°58'0 0.0
2018-May-25 16:30N 53°30' E 009°58'0 0.0
2018-May-25 16:00N 53°30' E 009°58'0 0.0
2018-May-25 15:30N 53°30' E 009°58'0 0.0
2018-May-25 15:00N 53°30' E 009°58'0 0.0
2018-May-25 14:30N 53°30' E 009°58'0 0.0
2018-May-25 14:00N 53°30' E 009°58'0 0.0
2018-May-25 13:30N 53°30' E 009°58'0 0.0
2018-May-25 13:00N 53°30' E 009°58'0 0.0
2018-May-25 12:30N 53°30' E 009°58'0 0.0
2018-May-25 12:00N 53°30' E 009°58'0 0.0
2018-May-25 11:30N 53°30' E 009°58'0 0.0
2018-May-25 11:00N 53°30' E 009°58'0 0.0
2018-May-25 10:30N 53°30' E 009°58'0 0.0
2018-May-25 10:00N 53°30' E 009°58'0 0.0
2018-May-25 09:30N 53°30' E 009°58'0 0.0
2018-May-25 09:00N 53°30' E 009°58'0 0.0
2018-May-25 08:30N 53°30' E 009°58'0 0.0
2018-May-25 08:00N 53°30' E 009°58'0 0.0
2018-May-25 07:30N 53°30' E 009°58'0 0.0
2018-May-25 07:00N 53°30' E 009°58'0 0.0
2018-May-25 06:30N 53°30' E 009°58'0 0.0
2018-May-25 06:00N 53°30' E 009°58'0 0.0
2018-May-25 05:30N 53°30' E 009°58'0 0.0
2018-May-25 05:00N 53°30' E 009°58'0 0.0
2018-May-25 04:30N 53°30' E 009°58'0 0.0
2018-May-25 04:00N 53°30' E 009°58'0 0.0
2018-May-25 03:30N 53°30' E 009°58'0 0.0
2018-May-25 03:00N 53°30' E 009°58'0 0.0
2018-May-25 02:30N 53°30' E 009°58'0 0.0
2018-May-25 02:00N 53°30' E 009°58'0 0.0
2018-May-25 01:30N 53°30' E 009°58'0 0.0
2018-May-25 01:00N 53°30' E 009°58'0 0.0
2018-May-25 00:30N 53°30' E 009°58'0 0.0
2018-May-25 00:00N 53°30' E 009°58'0 0.0
2018-May-24 23:30N 53°30' E 009°58'0 0.0
2018-May-24 23:00N 53°30' E 009°58'0 0.0
2018-May-24 22:30N 53°30' E 009°58'0 0.0
2018-May-24 22:00N 53°30' E 009°58'0 0.5
2018-May-24 21:30N 53°30' E 009°57'3 5.1
2018-May-24 21:00N 53°32' E 009°55'4 8.0
2018-May-24 20:30N 53°33' E 009°48'611.2
2018-May-24 20:00N 53°34' E 009°39'713.1
2018-May-24 19:30N 53°39' E 009°31'713.2
2018-May-24 19:00N 53°44' E 009°25'714.9
2018-May-24 18:31N 53°51' E 009°19'713.9
2018-May-24 18:01N 53°53' E 009°08'510.6
2018-May-24 17:30N 53°51' E 008°59'714.1
2018-May-24 17:00N 53°50' E 008°47'611.1
2018-May-24 16:30N 53°54' E 008°41'714.3
2018-May-24 16:00N 53°58' E 008°31'714.5
2018-May-24 15:30N 53°60' E 008°19'612.2
2018-May-24 15:00N 53°60' E 008°08'3 6.4
2018-May-24 14:30N 54°00' E 008°03'4 7.8
2018-May-24 14:00N 54°02' E 007°57'95 9.0
2018-May-24 03:27N 55°19' E 006°23'613.4
2018-May-24 03:00N 55°25' E 006°27'713.3
2018-May-24 02:30N 55°31' E 006°31'713.3
2018-May-24 02:00N 55°37' E 006°36'713.3
2018-May-24 01:30N 55°43' E 006°41'713.2
2018-May-24 01:00N 55°49' E 006°46'713.3
2018-May-24 00:30N 55°55' E 006°51'713.1
2018-May-24 00:00N 56°01' E 006°55'613.1
2018-May-23 23:30N 56°07' E 007°00'713.1
2018-May-23 23:00N 56°13' E 007°05'713.2
2018-May-23 22:30N 56°19' E 007°10'713.3
2018-May-23 22:00N 56°25' E 007°16'713.3
2018-May-23 21:30N 56°31' E 007°21'713.4
2018-May-23 21:00N 56°37' E 007°27'713.5
2018-May-23 20:30N 56°43' E 007°32'713.6
2018-May-23 20:00N 56°49' E 007°37'813.5
2018-May-23 19:26N 56°56' E 007°43'  

Dump ship's entire track history